createdAt,value
2019-03-08T00:01:26.990Z,98994.92
2019-03-08T00:04:08.441Z,98999.20
2019-03-08T00:06:49.700Z,99004.64
2019-03-08T00:09:29.538Z,98993.33
2019-03-08T00:12:09.250Z,98991.58
2019-03-08T00:14:50.134Z,98999.82
2019-03-08T00:17:29.860Z,98999.20
2019-03-08T00:20:10.150Z,98999.41
2019-03-08T00:22:49.859Z,98979.98
2019-03-08T00:25:29.929Z,98980.84
2019-03-08T00:28:09.628Z,98989.77
2019-03-08T00:30:50.558Z,98988.92
2019-03-08T00:33:30.199Z,98986.61
2019-03-08T00:36:10.012Z,98982.24
2019-03-08T00:38:49.738Z,98980.62
2019-03-08T00:41:29.462Z,98994.11
2019-03-08T00:44:10.330Z,98998.24
2019-03-08T00:46:50.133Z,99000.67
2019-03-08T00:49:29.813Z,98995.79
2019-03-08T00:52:09.533Z,98994.91
2019-03-08T00:54:49.452Z,98998.65
2019-03-08T00:57:29.095Z,98995.19
2019-03-08T01:00:14.028Z,98997.38
2019-03-08T01:02:53.948Z,98994.86
2019-03-08T01:05:33.657Z,98983.80
2019-03-08T01:08:13.452Z,98979.16
2019-03-08T01:10:53.643Z,98974.59
2019-03-08T01:13:33.453Z,98962.70
2019-03-08T01:16:13.346Z,98966.13
2019-03-08T01:18:53.210Z,98961.37
2019-03-08T01:21:33.057Z,98964.52
2019-03-08T01:24:12.840Z,98964.77
2019-03-08T01:26:52.592Z,98966.19
2019-03-08T01:29:32.322Z,98962.45
2019-03-08T01:32:12.418Z,98950.80
2019-03-08T01:34:52.191Z,98966.23
2019-03-08T01:37:31.897Z,98952.92
2019-03-08T01:40:11.829Z,98950.72
2019-03-08T01:42:51.845Z,98941.52
2019-03-08T01:45:31.851Z,98942.01
2019-03-08T01:48:11.605Z,98948.91
2019-03-08T01:50:55.399Z,98937.80
2019-03-08T01:53:35.049Z,98923.77
2019-03-08T01:56:14.826Z,98923.44
2019-03-08T01:58:54.551Z,98921.77
2019-03-08T02:01:34.196Z,98911.09
2019-03-08T02:04:14.109Z,98920.99
2019-03-08T02:06:53.877Z,98915.41
2019-03-08T02:09:33.661Z,98923.05
2019-03-08T02:12:13.625Z,98915.95
2019-03-08T02:14:53.333Z,98917.91
2019-03-08T02:17:34.205Z,98905.59
2019-03-08T02:20:17.109Z,98906.38
2019-03-08T02:22:56.955Z,98906.73
2019-03-08T02:25:36.749Z,98900.73
2019-03-08T02:28:16.937Z,98907.12
2019-03-08T02:30:56.866Z,98904.04
2019-03-08T02:33:36.689Z,98897.20
2019-03-08T02:36:17.632Z,98906.41
2019-03-08T02:38:57.378Z,98902.70
2019-03-08T02:41:39.236Z,98910.02
2019-03-08T02:44:19.392Z,98912.36
2019-03-08T02:46:59.224Z,98898.98
2019-03-08T02:49:39.008Z,98906.80
2019-03-08T02:52:18.880Z,98898.29
2019-03-08T02:54:58.679Z,98898.72
2019-03-08T02:57:38.366Z,98895.94
2019-03-08T03:00:19.829Z,98897.45
2019-03-08T03:02:59.555Z,98893.66
2019-03-08T03:05:39.274Z,98905.43
2019-03-08T03:08:19.312Z,98900.62
2019-03-08T03:10:58.993Z,98890.03
2019-03-08T03:13:38.750Z,98892.48
2019-03-08T03:16:18.531Z,98894.97
2019-03-08T03:18:58.347Z,98886.05
2019-03-08T03:21:38.051Z,98890.82
2019-03-08T03:24:17.989Z,98888.63
2019-03-08T03:26:57.681Z,98892.25
2019-03-08T03:29:47.154Z,98887.18
2019-03-08T03:32:33.686Z,98898.53
2019-03-08T03:35:13.458Z,98898.12
2019-03-08T03:37:53.258Z,98900.59
2019-03-08T03:40:32.891Z,98894.88
2019-03-08T03:43:12.699Z,98909.20
2019-03-08T03:45:52.517Z,98897.41
2019-03-08T03:48:32.298Z,98903.74
2019-03-08T03:51:12.246Z,98905.08
2019-03-08T03:53:52.057Z,98905.68
2019-03-08T03:56:32.053Z,98912.17
2019-03-08T03:59:12.641Z,98915.09
2019-03-08T04:01:53.875Z,98915.97
2019-03-08T04:04:33.217Z,98916.50
2019-03-08T04:07:12.880Z,98915.78
2019-03-08T04:09:52.593Z,98902.91
2019-03-08T04:12:32.347Z,98897.55
2019-03-08T04:15:14.468Z,98904.67
2019-03-08T04:17:54.232Z,98902.16
2019-03-08T04:20:33.961Z,98884.81
2019-03-08T04:23:14.018Z,98897.98
2019-03-08T04:25:53.653Z,98898.94
2019-03-08T04:28:34.034Z,98889.17
2019-03-08T04:31:14.985Z,98898.61
2019-03-08T04:33:54.855Z,98901.53
2019-03-08T04:36:34.111Z,98901.23
2019-03-08T04:39:13.748Z,98905.45
2019-03-08T04:41:53.401Z,98914.70
2019-03-08T04:44:33.403Z,98904.31
2019-03-08T04:47:18.279Z,98903.08
2019-03-08T04:49:58.452Z,98907.79
2019-03-08T04:52:38.368Z,98914.55
2019-03-08T04:55:18.364Z,98917.44
2019-03-08T04:57:59.856Z,98916.64
2019-03-08T05:00:39.777Z,98922.58
2019-03-08T05:03:27.109Z,98916.31
2019-03-08T05:06:07.026Z,98914.09
2019-03-08T05:08:47.828Z,98910.94
2019-03-08T05:11:27.661Z,98914.59
2019-03-08T05:14:07.387Z,98916.50
2019-03-08T05:16:47.049Z,98908.77
2019-03-08T05:19:27.124Z,98915.72
2019-03-08T05:22:06.750Z,98924.42
2019-03-08T05:24:46.347Z,98929.16
2019-03-08T05:27:26.018Z,98909.95
2019-03-08T05:30:06.800Z,98919.78
2019-03-08T05:32:46.431Z,98932.00
2019-03-08T05:35:26.272Z,98932.42
2019-03-08T05:38:06.155Z,98929.19
2019-03-08T05:40:46.261Z,98929.85
2019-03-08T05:43:26.062Z,98928.13
2019-03-08T05:46:05.977Z,98942.95
2019-03-08T05:48:45.850Z,98937.34
2019-03-08T05:51:25.824Z,98939.44
2019-03-08T05:54:07.203Z,98947.24
2019-03-08T05:56:47.240Z,98936.30
2019-03-08T05:59:26.957Z,98941.50
2019-03-08T06:02:07.238Z,98951.62
2019-03-08T06:04:50.725Z,98946.86
2019-03-08T06:07:30.583Z,98956.59
2019-03-08T06:10:37.054Z,98960.94
2019-03-08T06:13:16.742Z,98962.29
2019-03-08T06:15:56.625Z,98954.88
2019-03-08T06:18:36.390Z,98954.87
2019-03-08T06:21:17.742Z,98960.70
2019-03-08T06:23:57.419Z,98967.80
2019-03-08T06:26:37.207Z,98965.89
2019-03-08T06:29:18.279Z,98978.95
2019-03-08T06:31:59.267Z,98991.05
2019-03-08T06:34:39.157Z,99003.97
2019-03-08T06:37:19.146Z,99004.41
2019-03-08T06:40:00.655Z,98992.22
2019-03-08T06:42:40.504Z,99016.84
2019-03-08T06:45:20.309Z,99017.90
2019-03-08T06:48:00.019Z,99027.17
2019-03-08T06:50:39.717Z,99037.91
2019-03-08T06:53:19.510Z,99018.84
2019-03-08T06:55:59.623Z,99034.30
2019-03-08T06:58:45.425Z,99029.70
2019-03-08T07:01:28.144Z,99042.56
2019-03-08T07:04:07.971Z,99040.28
2019-03-08T07:06:47.726Z,99054.83
2019-03-08T07:09:27.451Z,99043.66
2019-03-08T07:12:07.139Z,99054.78
2019-03-08T07:14:46.828Z,99053.63
2019-03-08T07:17:29.679Z,99050.39
2019-03-08T07:20:32.842Z,99058.30
2019-03-08T07:23:32.301Z,99059.97
2019-03-08T07:26:29.762Z,99079.48
2019-03-08T07:29:26.637Z,99085.30
2019-03-08T07:32:13.386Z,99107.16
2019-03-08T07:35:21.572Z,99112.69
2019-03-08T07:38:09.456Z,92543.31
2019-03-08T07:41:17.037Z,99098.94
2019-03-08T07:44:30.929Z,99107.36
2019-03-08T07:47:26.109Z,99123.25
2019-03-08T07:50:16.608Z,99123.04
2019-03-08T07:53:04.296Z,99125.50
2019-03-08T07:55:50.270Z,99137.22
2019-03-08T07:58:47.547Z,99152.22
2019-03-08T08:01:39.049Z,99149.70
2019-03-08T08:04:36.651Z,99156.23
2019-03-08T08:07:29.319Z,99163.69
2019-03-08T08:10:19.219Z,99177.05
2019-03-08T08:13:20.792Z,99193.27
2019-03-08T08:16:22.748Z,99193.69
2019-03-08T08:19:08.808Z,99212.98
2019-03-08T08:22:04.345Z,99205.40
2019-03-08T08:25:05.836Z,99220.57
2019-03-08T08:28:07.772Z,99224.36
2019-03-08T08:31:03.462Z,99224.93
2019-03-08T08:34:21.898Z,99244.48
2019-03-08T08:37:10.964Z,99237.58
2019-03-08T08:40:27.799Z,99245.13
2019-03-08T08:43:20.346Z,99275.77
2019-03-08T08:46:17.749Z,99261.34
2019-03-08T08:49:10.595Z,99273.39
2019-03-08T08:52:04.675Z,99272.00
2019-03-08T08:55:06.423Z,99277.37
2019-03-08T08:58:03.677Z,99275.82
2019-03-08T09:00:56.304Z,99283.48
2019-03-08T09:03:44.939Z,99281.85
2019-03-08T09:06:36.579Z,99297.39
2019-03-08T09:09:22.672Z,99300.03
2019-03-08T09:12:28.137Z,99291.13
2019-03-08T09:15:20.459Z,99297.04
2019-03-08T09:18:06.861Z,99288.25
2019-03-08T09:21:04.381Z,99304.12
2019-03-08T09:23:49.064Z,99307.34
2019-03-08T09:26:46.584Z,99303.62
2019-03-08T09:29:43.973Z,99325.25
2019-03-08T09:32:30.035Z,99323.66
2019-03-08T09:35:26.853Z,99332.38
2019-03-08T09:38:32.606Z,99325.91
2019-03-08T09:41:41.355Z,99325.63
2019-03-08T09:44:30.376Z,99336.94
2019-03-08T09:47:31.888Z,99333.48
2019-03-08T09:50:26.302Z,99350.36
2019-03-08T09:53:14.036Z,99356.98
2019-03-08T09:56:10.187Z,99368.44
2019-03-08T09:59:21.311Z,99369.71
2019-03-08T10:02:20.494Z,99375.29
2019-03-08T10:05:18.109Z,99383.51
2019-03-08T10:08:20.181Z,99393.38
2019-03-08T10:11:11.293Z,99391.52
2019-03-08T10:14:12.693Z,99397.96
2019-03-08T10:17:07.949Z,99393.92
2019-03-08T10:20:06.431Z,99418.96
2019-03-08T10:22:56.879Z,99397.13
2019-03-08T10:25:47.318Z,99416.83
2019-03-08T10:28:36.101Z,99433.94
2019-03-08T10:31:30.060Z,99429.34
2019-03-08T10:34:28.747Z,99423.55
2019-03-08T10:37:20.087Z,99429.98
2019-03-08T10:40:24.904Z,99425.91
2019-03-08T10:43:14.957Z,99426.07
2019-03-08T10:46:15.639Z,99424.00
2019-03-08T10:49:18.901Z,99442.44
2019-03-08T10:52:17.257Z,99427.77
2019-03-08T10:55:09.196Z,99437.36
2019-03-08T10:58:06.715Z,99441.81
2019-03-08T11:01:20.543Z,99443.15
2019-03-08T11:04:23.271Z,99442.80
2019-03-08T11:07:10.586Z,99458.30
2019-03-08T11:10:09.603Z,99450.73
2019-03-08T11:12:58.994Z,99476.13
2019-03-08T11:15:56.466Z,99464.70
2019-03-08T11:18:55.259Z,99487.76
2019-03-08T11:21:44.325Z,99493.42
2019-03-08T11:24:35.216Z,99501.83
2019-03-08T11:27:37.612Z,99513.47
2019-03-08T11:30:35.662Z,99513.61
2019-03-08T11:33:32.994Z,99522.73
2019-03-08T11:36:19.227Z,99524.52
2019-03-08T11:39:08.884Z,99534.47
2019-03-08T11:42:00.960Z,99539.20
2019-03-08T11:45:06.762Z,99549.55
2019-03-08T11:48:06.547Z,99538.02
2019-03-08T11:51:00.270Z,99551.81
2019-03-08T11:53:56.271Z,99545.02
2019-03-08T11:56:56.178Z,99552.05
2019-03-08T12:00:02.487Z,99561.47
2019-03-08T12:03:08.955Z,99568.48
2019-03-08T12:06:08.131Z,99571.86
2019-03-08T12:09:09.996Z,99557.13
2019-03-08T12:12:09.383Z,99556.16
2019-03-08T12:15:08.678Z,99576.94
2019-03-08T12:18:10.472Z,99577.56
2019-03-08T12:21:07.926Z,99580.78
2019-03-08T12:24:05.322Z,99589.39
2019-03-08T12:26:54.713Z,99579.13
2019-03-08T12:29:53.017Z,99580.16
2019-03-08T12:32:43.635Z,99576.77
2019-03-08T12:35:38.166Z,99579.28
2019-03-08T12:38:37.003Z,99583.88
2019-03-08T12:41:22.272Z,99601.41
2019-03-08T12:44:22.360Z,99606.14
2019-03-08T12:47:13.423Z,99592.48
2019-03-08T12:50:00.294Z,99594.44
2019-03-08T12:52:57.705Z,99604.45
2019-03-08T12:55:58.268Z,99611.93
2019-03-08T12:59:15.118Z,99608.27
2019-03-08T13:02:15.159Z,99618.77
2019-03-08T13:05:24.982Z,99606.11
2019-03-08T13:08:23.264Z,99609.95
2019-03-08T13:11:06.706Z,99609.91
2019-03-08T13:13:46.492Z,99606.75
2019-03-08T13:16:26.203Z,99608.34
2019-03-08T13:19:06.242Z,99617.25
2019-03-08T13:21:46.005Z,99605.42
2019-03-08T13:24:29.035Z,99608.73
2019-03-08T13:27:08.884Z,99627.05
2019-03-08T13:29:48.598Z,99620.75
2019-03-08T13:32:28.475Z,99631.95
2019-03-08T13:35:09.667Z,99643.73
2019-03-08T13:37:49.471Z,99642.00
2019-03-08T13:40:29.171Z,99644.87
2019-03-08T13:43:08.931Z,99653.47
2019-03-08T13:45:48.440Z,99657.45
2019-03-08T13:48:28.210Z,99665.39
2019-03-08T13:51:07.821Z,99653.86
2019-03-08T13:53:47.497Z,99664.13
2019-03-08T13:56:27.163Z,99660.70
2019-03-08T13:59:06.577Z,99668.72
2019-03-08T14:01:45.929Z,99671.47
2019-03-08T14:04:25.964Z,99670.70
2019-03-08T14:07:05.631Z,99671.73
2019-03-08T14:09:45.342Z,99667.27
2019-03-08T14:12:25.190Z,99678.51
2019-03-08T14:15:07.434Z,99675.00
2019-03-08T14:17:47.540Z,99673.72
2019-03-08T14:20:27.109Z,99674.45
2019-03-08T14:23:07.044Z,99680.77
2019-03-08T14:25:46.618Z,99688.38
2019-03-08T14:28:26.285Z,99680.31
2019-03-08T14:31:13.981Z,99687.30
2019-03-08T14:33:53.702Z,99699.31
2019-03-08T14:36:33.339Z,99700.44
2019-03-08T14:39:13.419Z,99706.97
2019-03-08T14:42:19.303Z,99720.63
2019-03-08T14:45:17.711Z,99706.53
2019-03-08T14:47:59.288Z,99715.72
2019-03-08T14:50:38.993Z,99718.52
2019-03-08T14:53:18.662Z,99718.50
2019-03-08T14:55:59.150Z,99716.14
2019-03-08T14:58:40.435Z,99724.88
2019-03-08T15:01:21.419Z,99723.03
2019-03-08T15:04:00.797Z,99729.64
2019-03-08T15:06:42.010Z,99741.98
2019-03-08T15:09:22.056Z,99749.30
2019-03-08T15:12:01.692Z,99761.75
2019-03-08T15:14:41.443Z,99767.13
2019-03-08T15:17:21.048Z,99782.94
2019-03-08T15:20:00.755Z,99815.02
2019-03-08T15:22:40.373Z,99827.55
2019-03-08T15:25:20.058Z,99850.16
2019-03-08T15:27:59.764Z,99848.85
2019-03-08T15:30:39.573Z,99846.72
2019-03-08T15:33:19.249Z,99844.54
2019-03-08T15:35:58.877Z,99849.84
2019-03-08T15:38:38.524Z,99823.16
2019-03-08T15:41:21.444Z,99815.77
2019-03-08T15:43:59.779Z,99812.00
2019-03-08T15:46:39.692Z,99815.05
2019-03-08T15:49:19.405Z,99828.28
2019-03-08T15:51:59.914Z,99829.57
2019-03-08T15:54:40.871Z,99838.17
2019-03-08T15:57:20.646Z,99837.52
2019-03-08T16:00:00.402Z,99838.28
2019-03-08T16:02:44.521Z,99839.25
2019-03-08T16:05:28.180Z,99850.03
2019-03-08T16:08:05.779Z,99849.00
2019-03-08T16:10:45.520Z,99858.14
2019-03-08T16:13:25.246Z,99861.36
2019-03-08T16:16:04.989Z,99859.62
2019-03-08T16:18:47.983Z,99870.77
2019-03-08T16:21:26.202Z,99868.89
2019-03-08T16:24:06.052Z,99877.39
2019-03-08T16:26:45.633Z,99881.79
2019-03-08T16:29:26.604Z,99876.77
2019-03-08T16:32:11.596Z,99891.16
2019-03-08T16:34:51.036Z,99880.75
2019-03-08T16:37:50.943Z,99884.11
2019-03-08T16:40:48.124Z,99900.53
2019-03-08T16:43:34.865Z,99902.44
2019-03-08T16:46:20.996Z,99915.97
2019-03-08T16:49:20.060Z,99904.20
2019-03-08T16:52:12.790Z,99895.61
2019-03-08T16:55:22.155Z,99896.63
2019-03-08T16:58:32.718Z,99897.45
2019-03-08T17:01:37.372Z,99904.56
2019-03-08T17:04:25.887Z,99910.77
2019-03-08T17:07:12.086Z,99912.38
2019-03-08T17:10:11.249Z,99917.45
2019-03-08T17:12:59.872Z,99926.36
2019-03-08T17:15:59.452Z,99930.79
2019-03-08T17:18:47.197Z,99935.86
2019-03-08T17:21:58.400Z,99942.70
2019-03-08T17:24:56.132Z,99953.06
2019-03-08T17:27:50.006Z,99952.82
2019-03-08T17:30:54.451Z,99962.71
2019-03-08T17:33:51.970Z,99965.11
2019-03-08T17:36:45.623Z,99971.25
2019-03-08T17:39:41.563Z,99974.38
2019-03-08T17:42:47.747Z,99975.34
2019-03-08T17:45:49.496Z,99984.45
2019-03-08T17:48:46.293Z,99989.74
2019-03-08T17:51:41.355Z,99993.93
2019-03-08T17:54:38.618Z,99997.91
2019-03-08T17:57:28.003Z,99999.70
2019-03-08T18:00:33.860Z,100001.48
2019-03-08T18:03:55.654Z,100002.06
2019-03-08T18:06:58.780Z,99997.06
2019-03-08T18:10:13.684Z,100007.97
2019-03-08T18:13:16.883Z,100006.59
2019-03-08T18:16:28.847Z,100006.51
2019-03-08T18:19:43.426Z,100006.20
2019-03-08T18:22:47.113Z,100014.02
2019-03-08T18:26:05.042Z,100023.69
2019-03-08T18:29:19.726Z,100028.47
2019-03-08T18:32:22.772Z,100027.20
2019-03-08T18:35:30.968Z,100032.64
2019-03-08T18:38:45.158Z,100038.14
2019-03-08T18:42:03.471Z,100035.32
2019-03-08T18:45:06.707Z,100043.27
2019-03-08T18:48:24.282Z,100043.25
2019-03-08T18:51:32.331Z,100037.91
2019-03-08T18:54:48.328Z,100047.81
2019-03-08T18:58:14.291Z,100046.11
2019-03-08T19:01:33.916Z,100055.94
2019-03-08T19:04:42.234Z,100053.25
2019-03-08T19:07:57.807Z,100058.38
2019-03-08T19:11:11.326Z,100070.55
2019-03-08T19:14:19.451Z,100078.05
2019-03-08T19:17:34.350Z,100081.63
2019-03-08T19:20:49.531Z,100087.06
2019-03-08T19:23:58.131Z,100094.65
2019-03-08T19:27:20.187Z,100100.38
2019-03-08T19:30:45.175Z,100094.97
2019-03-08T19:34:16.063Z,100085.34
2019-03-08T19:37:29.041Z,100089.64
2019-03-08T19:40:42.757Z,100089.86
2019-03-08T19:43:54.211Z,100090.70
2019-03-08T19:47:15.082Z,100089.48
2019-03-08T19:50:40.586Z,100089.30
2019-03-08T19:53:54.267Z,100089.90
2019-03-08T19:57:24.582Z,100089.25
2019-03-08T20:00:38.615Z,100088.20
2019-03-08T20:03:56.234Z,100081.33
2019-03-08T20:07:00.157Z,100082.24
2019-03-08T20:10:15.380Z,100086.33
2019-03-08T20:13:37.794Z,100081.06
2019-03-08T20:17:08.288Z,100091.09
2019-03-08T20:20:22.302Z,100091.58
2019-03-08T20:23:38.211Z,100090.94
2019-03-08T20:26:51.427Z,100085.30
2019-03-08T20:29:55.386Z,100083.82
2019-03-08T20:33:04.647Z,100087.10
2019-03-08T20:36:15.209Z,100084.59
2019-03-08T20:39:31.368Z,100079.34
2019-03-08T20:42:49.375Z,100085.70
2019-03-08T20:45:52.159Z,100081.00
2019-03-08T20:48:48.624Z,100080.53
2019-03-08T20:51:45.792Z,100087.66
2019-03-08T20:54:43.987Z,100087.83
2019-03-08T20:57:39.948Z,100094.76
2019-03-08T21:00:36.000Z,100099.20
2019-03-08T21:03:32.067Z,100097.17
2019-03-08T21:06:28.834Z,100099.91
2019-03-08T21:09:24.947Z,100104.47
2019-03-08T21:12:20.753Z,100107.58
2019-03-08T21:15:25.429Z,100102.48
2019-03-08T21:18:16.414Z,100106.81
2019-03-08T21:21:12.338Z,100105.04
2019-03-08T21:24:09.813Z,100100.17
2019-03-08T21:27:06.027Z,100103.33
2019-03-08T21:30:05.961Z,100102.89
2019-03-08T21:33:02.401Z,100102.41
2019-03-08T21:35:59.423Z,100100.36
2019-03-08T21:38:55.846Z,100095.38
2019-03-08T21:41:52.506Z,100095.74
2019-03-08T21:44:49.158Z,100097.20
2019-03-08T21:47:46.132Z,100096.34
2019-03-08T21:50:43.144Z,100102.16
2019-03-08T21:53:39.871Z,100099.02
2019-03-08T21:56:36.771Z,100091.50
2019-03-08T21:59:32.867Z,100096.58
2019-03-08T22:02:29.021Z,100095.10
2019-03-08T22:05:28.995Z,100090.20
2019-03-08T22:08:25.529Z,100090.52
2019-03-08T22:11:28.483Z,100084.13
2019-03-08T22:14:24.216Z,100080.06
2019-03-08T22:17:22.603Z,100079.92
2019-03-08T22:20:19.259Z,100080.64
2019-03-08T22:23:15.054Z,100080.20
2019-03-08T22:26:10.822Z,100075.35
2019-03-08T22:29:06.911Z,100069.66
2019-03-08T22:32:02.767Z,100064.84
2019-03-08T22:34:59.178Z,100065.99
2019-03-08T22:37:56.897Z,100064.42
2019-03-08T22:40:53.261Z,100052.81
2019-03-08T22:43:49.051Z,100042.27
2019-03-08T22:46:46.100Z,100035.75
2019-03-08T22:49:43.789Z,100037.23
2019-03-08T22:52:40.557Z,100026.52
2019-03-08T22:55:38.250Z,100030.67
2019-03-08T22:58:34.889Z,100036.23
2019-03-08T23:01:50.815Z,100034.14
2019-03-08T23:04:46.915Z,100032.54
2019-03-08T23:07:43.762Z,100035.17
2019-03-08T23:10:42.011Z,100026.63
2019-03-08T23:13:39.093Z,100024.20
2019-03-08T23:16:34.740Z,100024.85
2019-03-08T23:19:31.630Z,100020.69
2019-03-08T23:22:28.120Z,100012.95
2019-03-08T23:25:24.166Z,100009.97
2019-03-08T23:28:41.805Z,100012.05
2019-03-08T23:31:53.172Z,99997.58
2019-03-08T23:34:49.107Z,99995.11
2019-03-08T23:37:46.704Z,99997.17
2019-03-08T23:40:43.483Z,99984.23
2019-03-08T23:43:39.433Z,99977.07
2019-03-08T23:46:35.254Z,99973.85
2019-03-08T23:49:31.104Z,99969.55
2019-03-08T23:52:27.153Z,99963.69
2019-03-08T23:55:23.665Z,99961.81
2019-03-08T23:58:20.073Z,99960.53
